createdAt,value
2023-08-21T00:00:53.625Z,12.95
2023-08-21T00:03:24.432Z,12.93
2023-08-21T00:05:53.545Z,12.91
2023-08-21T00:08:22.808Z,12.85
2023-08-21T00:10:52.104Z,12.82
2023-08-21T00:13:21.318Z,12.75
2023-08-21T00:15:50.365Z,12.78
2023-08-21T00:18:21.272Z,12.84
2023-08-21T00:20:50.481Z,12.83
2023-08-21T00:23:19.578Z,12.79
2023-08-21T00:25:49.789Z,12.79
2023-08-21T00:28:19.347Z,12.74
2023-08-21T00:30:48.644Z,12.72
2023-08-21T00:33:17.689Z,12.73
2023-08-21T00:35:48.195Z,12.71
2023-08-21T00:38:17.187Z,12.66
2023-08-21T00:40:46.325Z,12.64
2023-08-21T00:43:15.337Z,12.69
2023-08-21T00:45:46.806Z,12.69
2023-08-21T00:48:17.152Z,12.67
2023-08-21T00:50:47.884Z,12.66
2023-08-21T00:53:17.429Z,12.58
2023-08-21T00:55:48.054Z,12.58
2023-08-21T00:58:19.876Z,12.49
2023-08-21T01:00:51.570Z,12.38
2023-08-21T01:03:22.280Z,12.28
2023-08-21T01:05:53.173Z,12.13
2023-08-21T01:08:31.319Z,12.02
2023-08-21T01:11:08.627Z,11.98
2023-08-21T01:13:50.247Z,11.92
2023-08-21T01:16:21.161Z,11.90
2023-08-21T01:18:52.230Z,11.84
2023-08-21T01:21:23.069Z,11.84
2023-08-21T01:23:53.912Z,11.79
2023-08-21T01:26:23.108Z,11.76
2023-08-21T01:28:52.256Z,11.83
2023-08-21T01:31:38.145Z,11.74
2023-08-21T01:34:10.671Z,11.70
2023-08-21T01:36:41.447Z,11.73
2023-08-21T01:39:12.109Z,11.61
2023-08-21T01:41:41.449Z,11.63
2023-08-21T01:44:10.452Z,11.49
2023-08-21T01:46:39.533Z,11.44
2023-08-21T01:49:08.558Z,11.46
2023-08-21T01:51:37.749Z,11.35
2023-08-21T01:54:07.107Z,11.32
2023-08-21T01:56:37.732Z,11.47
2023-08-21T01:59:07.703Z,11.38
2023-08-21T02:01:37.383Z,11.31
2023-08-21T02:04:06.580Z,11.27
2023-08-21T02:06:35.617Z,11.31
2023-08-21T02:09:09.928Z,11.30
2023-08-21T02:11:40.516Z,11.31
2023-08-21T02:14:09.698Z,11.39
2023-08-21T02:16:39.038Z,11.38
2023-08-21T02:19:11.104Z,11.59
2023-08-21T02:21:40.350Z,11.82
2023-08-21T02:24:09.495Z,12.02
2023-08-21T02:26:40.232Z,12.17
2023-08-21T02:29:09.316Z,12.39
2023-08-21T02:31:38.405Z,12.69
2023-08-21T02:34:07.755Z,12.95
2023-08-21T02:36:37.098Z,13.34
2023-08-21T02:39:06.718Z,13.63
2023-08-21T02:41:35.882Z,13.95
2023-08-21T02:44:06.611Z,14.09
2023-08-21T02:46:37.536Z,13.62
2023-08-21T02:49:07.119Z,13.15
2023-08-21T02:51:36.282Z,12.91
2023-08-21T02:54:05.358Z,12.79
2023-08-21T02:56:35.419Z,12.76
2023-08-21T02:59:05.827Z,12.69
2023-08-21T03:01:36.537Z,12.70
2023-08-21T03:04:06.094Z,12.73
2023-08-21T03:06:35.122Z,12.73
2023-08-21T03:09:05.171Z,12.75
2023-08-21T03:11:34.538Z,12.78
2023-08-21T03:14:03.577Z,12.79
2023-08-21T03:16:34.197Z,12.72
2023-08-21T03:19:03.814Z,12.79
2023-08-21T03:21:33.926Z,12.75
2023-08-21T03:24:05.305Z,12.78
2023-08-21T03:26:35.048Z,12.86
2023-08-21T03:29:04.550Z,12.90
2023-08-21T03:31:35.505Z,12.89
2023-08-21T03:34:04.949Z,12.90
2023-08-21T03:36:34.643Z,12.98
2023-08-21T03:39:07.071Z,13.00
2023-08-21T03:41:40.284Z,12.96
2023-08-21T03:44:09.624Z,12.99
2023-08-21T03:46:40.135Z,13.07
2023-08-21T03:49:09.294Z,13.11
2023-08-21T03:51:38.431Z,13.05
2023-08-21T03:54:07.678Z,13.16
2023-08-21T03:56:36.751Z,13.33
2023-08-21T03:59:05.838Z,13.26
2023-08-21T04:01:34.952Z,13.20
2023-08-21T04:04:05.761Z,13.18
2023-08-21T04:06:35.028Z,13.15
2023-08-21T04:09:07.133Z,13.23
2023-08-21T04:11:37.188Z,13.29
2023-08-21T04:14:06.278Z,13.29
2023-08-21T04:16:35.473Z,13.37
2023-08-21T04:19:07.718Z,13.41
2023-08-21T04:21:36.895Z,13.51
2023-08-21T04:24:06.069Z,13.62
2023-08-21T04:26:35.135Z,13.74
2023-08-21T04:29:04.172Z,13.81
2023-08-21T04:31:34.443Z,13.92
2023-08-21T04:34:03.580Z,13.96
2023-08-21T04:36:35.807Z,13.96
2023-08-21T04:39:05.263Z,13.94
2023-08-21T04:41:34.395Z,13.99
2023-08-21T04:44:04.416Z,14.06
2023-08-21T04:46:34.502Z,14.18
2023-08-21T04:49:03.593Z,14.23
2023-08-21T04:51:32.689Z,14.30
2023-08-21T04:54:06.370Z,14.30
2023-08-21T04:56:35.503Z,14.33
2023-08-21T04:59:05.650Z,14.41
2023-08-21T05:01:34.987Z,14.49
2023-08-21T05:04:05.711Z,14.50
2023-08-21T05:06:34.975Z,14.58
2023-08-21T05:09:06.589Z,14.73
2023-08-21T05:11:36.014Z,14.90
2023-08-21T05:14:05.379Z,14.91
2023-08-21T05:16:34.980Z,14.94
2023-08-21T05:19:05.321Z,15.05
2023-08-21T05:21:34.481Z,15.12
2023-08-21T05:24:03.598Z,15.26
2023-08-21T05:26:37.965Z,15.32
2023-08-21T05:29:07.305Z,15.34
2023-08-21T05:31:36.553Z,15.52
2023-08-21T05:34:06.312Z,15.59
2023-08-21T05:36:35.530Z,15.62
2023-08-21T05:39:07.610Z,15.66
2023-08-21T05:41:39.593Z,15.73
2023-08-21T05:44:08.787Z,15.86
2023-08-21T05:46:37.876Z,15.91
2023-08-21T05:49:07.353Z,16.10
2023-08-21T05:51:36.642Z,16.05
2023-08-21T05:54:05.861Z,16.05
2023-08-21T05:56:34.982Z,15.95
2023-08-21T05:59:05.915Z,15.95
2023-08-21T06:01:35.015Z,16.01
2023-08-21T06:04:04.606Z,16.16
2023-08-21T06:06:56.688Z,16.27
2023-08-21T06:09:30.561Z,16.63
2023-08-21T06:11:59.750Z,17.03
2023-08-21T06:14:30.993Z,17.22
2023-08-21T06:17:05.009Z,17.46
2023-08-21T06:19:34.615Z,17.54
2023-08-21T06:22:04.582Z,17.77
2023-08-21T06:24:33.930Z,17.85
2023-08-21T06:27:08.226Z,18.23
2023-08-21T06:29:41.705Z,18.33
2023-08-21T06:32:10.908Z,18.27
2023-08-21T06:34:40.884Z,18.51
2023-08-21T06:37:10.458Z,18.39
2023-08-21T06:39:39.627Z,18.38
2023-08-21T06:42:09.030Z,18.85
2023-08-21T06:44:46.029Z,18.60
2023-08-21T06:47:15.375Z,18.58
2023-08-21T06:49:44.816Z,18.56
2023-08-21T06:52:14.105Z,18.60
2023-08-21T06:54:43.196Z,18.44
2023-08-21T06:57:12.266Z,18.77
2023-08-21T06:59:42.332Z,19.06
2023-08-21T07:02:13.058Z,19.26
2023-08-21T07:04:42.283Z,19.77
2023-08-21T07:07:11.432Z,19.30
2023-08-21T07:09:40.597Z,19.60
2023-08-21T07:12:09.855Z,19.61
2023-08-21T07:14:38.941Z,19.71
2023-08-21T07:17:08.009Z,19.87
2023-08-21T07:19:38.501Z,19.70
2023-08-21T07:22:07.632Z,20.16
2023-08-21T07:24:36.780Z,20.30
2023-08-21T07:27:06.096Z,20.02
2023-08-21T07:29:35.345Z,19.68
2023-08-21T07:32:04.641Z,19.45
2023-08-21T07:34:33.870Z,19.39
2023-08-21T07:37:04.349Z,19.90
2023-08-21T07:39:33.801Z,20.37
2023-08-21T07:42:03.626Z,20.52
2023-08-21T07:44:32.747Z,20.49
2023-08-21T07:47:01.786Z,19.83
2023-08-21T07:49:30.855Z,19.46
2023-08-21T07:51:59.931Z,19.05
2023-08-21T07:54:30.451Z,18.85
2023-08-21T07:56:59.605Z,19.03
2023-08-21T07:59:28.760Z,19.21
2023-08-21T08:01:59.660Z,19.48
2023-08-21T08:04:29.570Z,19.69
2023-08-21T08:06:58.778Z,19.62
2023-08-21T08:09:29.278Z,19.88
2023-08-21T08:11:58.540Z,19.92
2023-08-21T08:14:28.069Z,20.45
2023-08-21T08:16:57.295Z,20.61
2023-08-21T08:19:26.576Z,20.36
2023-08-21T08:21:55.742Z,20.85
2023-08-21T08:24:26.660Z,21.30
2023-08-21T08:26:57.193Z,21.10
2023-08-21T08:29:27.688Z,20.72
2023-08-21T08:31:56.846Z,20.88
2023-08-21T08:34:26.164Z,21.10
2023-08-21T08:36:55.463Z,21.89
2023-08-21T08:39:24.540Z,22.27
2023-08-21T08:42:00.497Z,21.77
2023-08-21T08:44:30.357Z,21.05
2023-08-21T08:47:01.733Z,20.45
2023-08-21T08:49:31.360Z,20.20
2023-08-21T08:52:02.027Z,20.43
2023-08-21T08:54:32.600Z,20.28
2023-08-21T08:57:03.865Z,19.65
2023-08-21T08:59:33.480Z,19.85
2023-08-21T09:02:03.146Z,20.10
2023-08-21T09:04:32.595Z,20.39
2023-08-21T09:07:11.656Z,20.84
2023-08-21T09:09:41.806Z,21.06
2023-08-21T09:12:16.611Z,21.06
2023-08-21T09:14:46.051Z,21.34
2023-08-21T09:17:15.881Z,21.57
2023-08-21T09:19:45.595Z,21.69
2023-08-21T09:22:19.656Z,21.36
2023-08-21T09:25:06.495Z,21.16
2023-08-21T09:27:40.308Z,21.00
2023-08-21T09:30:16.624Z,20.39
2023-08-21T09:32:56.820Z,19.97
2023-08-21T09:35:27.373Z,20.47
2023-08-21T09:37:56.577Z,20.96
2023-08-21T09:40:25.880Z,21.09
2023-08-21T09:42:58.022Z,20.98
2023-08-21T09:45:28.175Z,21.06
2023-08-21T09:47:59.670Z,21.09
2023-08-21T09:50:31.677Z,20.71
2023-08-21T09:53:01.344Z,20.87
2023-08-21T09:55:50.150Z,21.02
2023-08-21T09:58:21.759Z,21.00
2023-08-21T10:00:52.487Z,20.95
2023-08-21T10:03:23.597Z,21.14
2023-08-21T10:05:56.352Z,21.16
2023-08-21T10:08:28.201Z,20.97
2023-08-21T10:10:58.437Z,20.88
2023-08-21T10:13:30.302Z,20.33
2023-08-21T10:15:59.893Z,20.17
2023-08-21T10:18:34.632Z,20.45
2023-08-21T10:21:12.929Z,20.70
2023-08-21T10:23:45.986Z,20.84
2023-08-21T10:26:16.071Z,20.92
2023-08-21T10:28:52.257Z,21.10
2023-08-21T10:31:33.811Z,21.22
2023-08-21T10:34:04.580Z,21.34
2023-08-21T10:36:40.615Z,21.10
2023-08-21T10:39:16.446Z,20.87
2023-08-21T10:41:56.598Z,20.92
2023-08-21T10:44:51.662Z,20.86
2023-08-21T10:47:22.532Z,20.90
2023-08-21T10:49:53.808Z,21.03
2023-08-21T10:52:25.580Z,21.20
2023-08-21T10:54:56.384Z,21.12
2023-08-21T10:57:27.163Z,21.17
2023-08-21T10:59:59.810Z,21.34
2023-08-21T11:02:34.061Z,21.61
2023-08-21T11:05:04.292Z,21.76
2023-08-21T11:07:40.097Z,21.91
2023-08-21T11:10:12.462Z,21.97
2023-08-21T11:12:52.100Z,22.01
2023-08-21T11:15:23.864Z,22.14
2023-08-21T11:17:55.455Z,22.17
2023-08-21T11:20:25.094Z,22.06
2023-08-21T11:22:59.482Z,21.55
2023-08-21T11:25:32.355Z,20.91
2023-08-21T11:28:03.738Z,20.87
2023-08-21T11:30:35.544Z,20.86
2023-08-21T11:33:08.596Z,20.92
2023-08-21T11:35:41.018Z,21.04
2023-08-21T11:38:17.729Z,21.10
2023-08-21T11:40:54.584Z,21.12
2023-08-21T11:43:24.664Z,21.26
2023-08-21T11:45:59.436Z,21.44
2023-08-21T11:48:28.421Z,21.51
2023-08-21T11:50:57.772Z,21.27
2023-08-21T11:53:34.858Z,21.24
2023-08-21T11:56:04.361Z,21.30
2023-08-21T11:58:33.451Z,21.15
2023-08-21T12:01:11.300Z,21.32
2023-08-21T12:03:42.073Z,21.40
2023-08-21T12:06:12.685Z,21.56
2023-08-21T12:08:43.266Z,21.60
2023-08-21T12:11:12.897Z,21.50
2023-08-21T12:13:42.221Z,21.36
2023-08-21T12:16:12.936Z,21.26
2023-08-21T12:18:42.058Z,21.29
2023-08-21T12:21:11.452Z,21.36
2023-08-21T12:23:40.570Z,21.47
2023-08-21T12:26:09.764Z,21.45
2023-08-21T12:28:38.857Z,21.13
2023-08-21T12:31:08.201Z,20.78
2023-08-21T12:33:40.880Z,20.41
2023-08-21T12:36:11.175Z,20.26
2023-08-21T12:38:40.314Z,20.51
2023-08-21T12:41:09.540Z,20.80
2023-08-21T12:43:38.716Z,20.99
2023-08-21T12:46:09.174Z,21.16
2023-08-21T12:48:38.591Z,21.32
2023-08-21T12:51:09.203Z,21.17
2023-08-21T12:53:40.482Z,20.97
2023-08-21T12:56:10.326Z,20.72
2023-08-21T12:58:39.630Z,20.38
2023-08-21T13:01:09.271Z,20.12
2023-08-21T13:03:38.731Z,20.11
2023-08-21T13:06:09.282Z,20.25
2023-08-21T13:08:38.525Z,20.51
2023-08-21T13:11:11.734Z,20.81
2023-08-21T13:13:41.257Z,21.00
2023-08-21T13:16:10.710Z,21.04
2023-08-21T13:18:40.625Z,21.13
2023-08-21T13:21:11.278Z,21.14
2023-08-21T13:23:41.801Z,21.13
2023-08-21T13:26:11.373Z,21.08
2023-08-21T13:28:41.788Z,20.93
2023-08-21T13:31:12.452Z,21.07
2023-08-21T13:33:51.228Z,21.16
2023-08-21T13:36:30.137Z,21.13
2023-08-21T13:38:59.834Z,21.13
2023-08-21T13:41:29.056Z,21.15
2023-08-21T13:44:00.175Z,21.21
2023-08-21T13:46:32.893Z,21.22
2023-08-21T13:49:04.708Z,21.03
2023-08-21T13:51:35.147Z,20.97
2023-08-21T13:54:04.505Z,20.93
2023-08-21T13:56:33.622Z,20.85
2023-08-21T13:59:02.995Z,20.91
2023-08-21T14:01:32.271Z,20.94
2023-08-21T14:04:01.529Z,20.99
2023-08-21T14:06:31.063Z,20.99
2023-08-21T14:09:01.556Z,20.91
2023-08-21T14:11:30.650Z,20.90
2023-08-21T14:13:59.949Z,20.87
2023-08-21T14:16:29.239Z,20.83
2023-08-21T14:18:58.475Z,20.85
2023-08-21T14:21:27.762Z,20.83
2023-08-21T14:23:56.852Z,20.83
2023-08-21T14:26:27.387Z,20.77
2023-08-21T14:28:57.013Z,20.81
2023-08-21T14:31:26.325Z,20.87
2023-08-21T14:33:55.898Z,20.94
2023-08-21T14:36:25.055Z,21.03
2023-08-21T14:38:54.190Z,21.10
2023-08-21T14:41:23.492Z,21.09
2023-08-21T14:43:53.974Z,21.04
2023-08-21T14:46:34.420Z,21.10
2023-08-21T14:49:04.199Z,21.21
2023-08-21T14:51:33.278Z,21.18
2023-08-21T14:54:02.372Z,21.20
2023-08-21T14:56:31.859Z,21.33
2023-08-21T14:59:02.431Z,21.45
2023-08-21T15:01:31.857Z,21.45
2023-08-21T15:04:01.085Z,21.38
2023-08-21T15:06:30.164Z,21.21
2023-08-21T15:08:59.670Z,21.05
2023-08-21T15:11:28.866Z,20.81
2023-08-21T15:13:58.011Z,20.68
2023-08-21T15:16:28.718Z,20.64
2023-08-21T15:18:59.525Z,20.53
2023-08-21T15:21:28.729Z,20.39
2023-08-21T15:23:57.845Z,20.14
2023-08-21T15:26:26.984Z,19.97
2023-08-21T15:28:56.200Z,19.81
2023-08-21T15:31:25.632Z,19.71
2023-08-21T15:33:56.496Z,19.48
2023-08-21T15:36:25.675Z,19.45
2023-08-21T15:38:55.530Z,19.42
2023-08-21T15:41:25.890Z,19.36
2023-08-21T15:43:54.931Z,19.26
2023-08-21T15:46:24.284Z,19.19
2023-08-21T15:48:53.445Z,19.14
2023-08-21T15:51:24.026Z,19.04
2023-08-21T15:53:53.267Z,18.91
2023-08-21T15:56:22.337Z,18.84
2023-08-21T15:58:52.538Z,18.74
2023-08-21T16:01:21.715Z,18.59
2023-08-21T16:03:51.122Z,18.46
2023-08-21T16:06:20.219Z,18.33
2023-08-21T16:08:50.691Z,18.26
2023-08-21T16:11:19.819Z,18.16
2023-08-21T16:13:48.888Z,18.06
2023-08-21T16:16:18.208Z,17.95
2023-08-21T16:18:47.341Z,17.84
2023-08-21T16:21:16.505Z,17.70
2023-08-21T16:23:45.945Z,17.62
2023-08-21T16:26:16.504Z,17.53
2023-08-21T16:28:45.628Z,17.46
2023-08-21T16:31:17.615Z,17.35
2023-08-21T16:33:46.995Z,17.17
2023-08-21T16:36:16.105Z,16.96
2023-08-21T16:38:45.514Z,16.78
2023-08-21T16:41:16.123Z,16.69
2023-08-21T16:43:45.285Z,16.63
2023-08-21T16:46:14.848Z,16.60
2023-08-21T16:48:44.111Z,16.45
2023-08-21T16:51:13.496Z,16.32
2023-08-21T16:53:42.826Z,16.15
2023-08-21T16:56:12.115Z,16.06
2023-08-21T16:58:42.691Z,15.99
2023-08-21T17:01:12.215Z,15.85
2023-08-21T17:03:41.697Z,15.71
2023-08-21T17:06:11.205Z,15.56
2023-08-21T17:08:41.118Z,15.37
2023-08-21T17:11:11.033Z,15.38
2023-08-21T17:13:40.554Z,15.33
2023-08-21T17:16:12.371Z,15.30
2023-08-21T17:18:41.746Z,15.30
2023-08-21T17:21:14.165Z,15.35
2023-08-21T17:23:43.626Z,15.27
2023-08-21T17:26:14.152Z,15.24
2023-08-21T17:28:44.212Z,15.21
2023-08-21T17:31:15.105Z,15.24
2023-08-21T17:33:44.297Z,15.22
2023-08-21T17:36:13.512Z,15.19
2023-08-21T17:38:42.863Z,15.11
2023-08-21T17:41:14.600Z,15.10
2023-08-21T17:43:44.708Z,15.05
2023-08-21T17:46:18.123Z,15.02
2023-08-21T17:48:48.381Z,15.03
2023-08-21T17:51:17.779Z,15.00
2023-08-21T17:53:47.159Z,14.84
2023-08-21T17:56:16.475Z,14.76
2023-08-21T17:58:46.597Z,14.68
2023-08-21T18:01:18.200Z,14.71
2023-08-21T18:03:48.260Z,14.67
2023-08-21T18:06:23.189Z,14.61
2023-08-21T18:08:52.858Z,14.59
2023-08-21T18:11:22.282Z,14.57
2023-08-21T18:13:51.652Z,14.57
2023-08-21T18:16:22.414Z,14.59
2023-08-21T18:18:51.661Z,14.65
2023-08-21T18:21:22.793Z,14.64
2023-08-21T18:23:52.078Z,14.57
2023-08-21T18:26:21.330Z,14.55
2023-08-21T18:28:50.945Z,14.49
2023-08-21T18:31:21.890Z,14.44
2023-08-21T18:33:51.299Z,14.33
2023-08-21T18:36:20.723Z,14.32
2023-08-21T18:38:50.114Z,14.35
2023-08-21T18:41:19.435Z,14.37
2023-08-21T18:43:48.644Z,14.38
2023-08-21T18:46:19.829Z,14.38
2023-08-21T18:48:50.499Z,14.35
2023-08-21T18:51:19.975Z,14.30
2023-08-21T18:53:49.024Z,14.24
2023-08-21T18:56:18.298Z,14.25
2023-08-21T18:58:47.973Z,14.26
2023-08-21T19:01:17.458Z,14.28
2023-08-21T19:03:46.825Z,14.23
2023-08-21T19:06:17.385Z,14.14
2023-08-21T19:08:47.406Z,14.03
2023-08-21T19:11:16.657Z,13.90
2023-08-21T19:13:45.898Z,13.82
2023-08-21T19:16:15.267Z,13.86
2023-08-21T19:18:44.523Z,13.78
2023-08-21T19:21:14.022Z,13.65
2023-08-21T19:23:44.549Z,13.61
2023-08-21T19:26:13.619Z,13.60
2023-08-21T19:28:42.740Z,13.56
2023-08-21T19:31:12.320Z,13.54
2023-08-21T19:33:41.670Z,13.49
2023-08-21T19:36:14.595Z,13.56
2023-08-21T19:38:49.588Z,13.51
2023-08-21T19:41:18.845Z,13.52
2023-08-21T19:43:48.286Z,13.53
2023-08-21T19:46:17.386Z,13.52
2023-08-21T19:48:47.270Z,13.50
2023-08-21T19:51:16.519Z,13.52
2023-08-21T19:53:46.887Z,13.53
2023-08-21T19:56:16.014Z,13.50
2023-08-21T19:58:45.170Z,13.61
2023-08-21T20:01:14.462Z,13.74
2023-08-21T20:03:43.745Z,13.74
2023-08-21T20:06:16.061Z,13.71
2023-08-21T20:08:47.596Z,13.73
2023-08-21T20:11:16.910Z,13.75
2023-08-21T20:13:46.288Z,13.74
2023-08-21T20:16:16.140Z,13.77
2023-08-21T20:18:45.266Z,13.81
2023-08-21T20:21:19.341Z,13.87
2023-08-21T20:23:50.296Z,13.92
2023-08-21T20:26:20.741Z,13.97
2023-08-21T20:28:49.943Z,14.01
2023-08-21T20:31:19.320Z,14.06
2023-08-21T20:33:48.397Z,14.05
2023-08-21T20:36:17.610Z,14.05
2023-08-21T20:38:46.731Z,14.02
2023-08-21T20:41:17.196Z,14.06
2023-08-21T20:43:46.222Z,14.07
2023-08-21T20:46:15.402Z,14.03
2023-08-21T20:48:44.652Z,14.00
2023-08-21T20:51:14.663Z,14.02
2023-08-21T20:53:43.754Z,13.97
2023-08-21T20:56:12.902Z,13.88
2023-08-21T20:58:43.361Z,13.79
2023-08-21T21:01:12.486Z,13.70
2023-08-21T21:03:41.581Z,13.58
2023-08-21T21:06:10.677Z,13.46
2023-08-21T21:08:39.799Z,13.54
2023-08-21T21:11:08.990Z,13.56
2023-08-21T21:13:38.068Z,13.55
2023-08-21T21:16:08.682Z,13.60
2023-08-21T21:18:37.781Z,13.55
2023-08-21T21:21:07.099Z,13.43
2023-08-21T21:23:36.138Z,13.34
2023-08-21T21:26:05.217Z,13.33
2023-08-21T21:28:34.651Z,13.28
2023-08-21T21:31:04.059Z,13.40
2023-08-21T21:33:34.779Z,13.41
2023-08-21T21:36:04.895Z,13.44
2023-08-21T21:38:35.714Z,13.30
2023-08-21T21:41:04.929Z,13.22
2023-08-21T21:43:33.964Z,13.09
2023-08-21T21:46:03.105Z,12.97
2023-08-21T21:48:32.170Z,12.94
2023-08-21T21:51:02.676Z,12.99
2023-08-21T21:53:31.716Z,12.97
2023-08-21T21:56:01.920Z,12.92
2023-08-21T21:58:31.132Z,12.95
2023-08-21T22:01:00.406Z,12.81
2023-08-21T22:03:29.721Z,12.79
2023-08-21T22:05:59.571Z,12.73
2023-08-21T22:08:30.831Z,12.61
2023-08-21T22:11:05.886Z,12.56
2023-08-21T22:13:35.719Z,12.45
2023-08-21T22:16:05.758Z,12.34
2023-08-21T22:18:37.056Z,12.24
2023-08-21T22:21:08.963Z,12.20
2023-08-21T22:23:39.804Z,12.19
2023-08-21T22:26:09.097Z,12.10
2023-08-21T22:28:38.262Z,12.08
2023-08-21T22:31:09.610Z,12.03
2023-08-21T22:33:38.901Z,11.98
2023-08-21T22:36:09.250Z,12.02
2023-08-21T22:38:39.746Z,12.01
2023-08-21T22:41:08.987Z,11.95
2023-08-21T22:43:38.088Z,12.00
2023-08-21T22:46:07.530Z,11.95
2023-08-21T22:48:36.893Z,11.92
2023-08-21T22:51:07.316Z,11.84
2023-08-21T22:53:36.764Z,11.75
2023-08-21T22:56:07.554Z,11.66
2023-08-21T22:58:38.801Z,11.66
2023-08-21T23:01:08.129Z,11.69
2023-08-21T23:03:37.293Z,11.59
2023-08-21T23:06:06.630Z,11.66
2023-08-21T23:08:35.786Z,11.64
2023-08-21T23:11:06.708Z,11.64
2023-08-21T23:13:35.821Z,11.67
2023-08-21T23:16:05.320Z,11.65
2023-08-21T23:18:34.546Z,11.68
2023-08-21T23:21:06.398Z,11.75
2023-08-21T23:23:36.073Z,11.84
2023-08-21T23:26:07.174Z,11.93
2023-08-21T23:28:36.495Z,11.93
2023-08-21T23:31:06.036Z,12.03
2023-08-21T23:33:35.587Z,12.07
2023-08-21T23:36:04.828Z,12.03
2023-08-21T23:38:34.066Z,11.92
2023-08-21T23:41:04.426Z,12.03
2023-08-21T23:43:35.492Z,12.05
2023-08-21T23:46:04.592Z,12.21
2023-08-21T23:48:34.178Z,12.27
2023-08-21T23:51:03.705Z,12.32
2023-08-21T23:53:32.818Z,12.50
2023-08-21T23:56:02.022Z,12.64
2023-08-21T23:58:31.178Z,12.66
